Caswell, Maine
Current Conditions -  °F | °C
As of 11:32 AM on Saturday 20 Dec 2014 (Local Time) from KCAR Reporting Station
Light Snow Light Snow  
Wind Chill: 15°   Ceiling: 1300
Heat Index: 15°   Visibility: 1.7mi
Dew Point: 11°   Wind: 3mph
Humidity: 84%   Direction: 80°E
Pressure: 30.33"   Gusts: NA
Location:  46.9626°N, 67.8576°W
Report Text: KCAR 201632Z AUTO 08003KT 1 3/4SM -SN BR OVC013 M09/M12 A3033 RMK AO2 P0000 T10941117
Loading
Personal Weather Stations






























Interactive Weather Map New forecast layout! Learn more

10-Day Weather Forecast

Advertisements
Track Severe Weather on mobile